KVCT/VCT METAR and TAF weather

Enter ICAO airport designator
Station Type Date Time Source
KVCT METAR 2019/07/18 10:51 UTC NOAA

KVCT 181051Z AUTO 16004KT 10SM CLR 25/23 A3001 RMK AO2 SLP162 T02500233


Station Type Date Time Source
KVCT Decoded METAR 2019/07/18 10:51 UTC NOAA

VICTORIA REGIONAL AIRPORT, TX, United States (KVCT) 28-52N 96-56W 31M
Jul 18, 2019 - 06:51 AM EDT / 2019.07.18 1051 UTC
Wind: from the SSE (160 degrees) at 5 MPH (4 KT):0
Visibility: 10 mile(s):0
Sky conditions: clear
Temperature: 77.0 F (25.0 C)
Dew Point: 73.9 F (23.3 C)
Relative Humidity: 90%
Pressure (altimeter): 30.01 in. Hg (1016 hPa)
ob: KVCT 181051Z AUTO 16004KT 10SM CLR 25/23 A3001 RMK AO2 SLP162 T02500233
cycle: 11

Station Type Date Time Source
KVCT TAF 2019/07/18 06:39 UTC NOAA

TAF KVCT 180536Z 1806/1906 14009KT P6SM SCT015
TEMPO 1808/1810 BKN015
FM181000 17004KT P6SM BKN015
FM181500 15010G15KT P6SM BKN030
FM182000 15012G18KT P6SM SCT040
FM190300 16008KT P6SM SCT015 BKN250
TEMPO 1904/1906 5SM BR BKN015

Example: see airport list